EDT,Max TemperatureF,Mean TemperatureF,Min TemperatureF,Max Dew PointF,MeanDew PointF,Min DewpointF,Max Humidity, Mean Humidity, Min Humidity, Max Sea Level PressureIn, Mean Sea Level PressureIn, Min Sea Level PressureIn, Max VisibilityMiles, Mean VisibilityMiles, Min VisibilityMiles, Max Wind SpeedMPH, Mean Wind SpeedMPH, Max Gust SpeedMPH,PrecipitationIn, CloudCover, Events, WindDirDegrees
2012-10-1,75,68,62,75,67,63,100,95,83,29.90,29.85,29.81,10,7,2,12,5,17,0.31,8,Rain,63
2012-10-2,91,83,75,79,76,70,100,89,49,29.98,29.85,29.78,10,9,2,13,6,21,0.19,6,Rain-Thunderstorm,156
2012-10-3,86,80,73,79,74,70,100,89,62,30.20,30.08,29.99,10,7,3,9,1,,0.00,4,,197
2012-10-4,78,72,64,73,70,64,100,92,65,30.25,30.20,30.16,10,8,1,6,1,,0.04,4,Rain,258
2012-10-5,80,70,60,68,63,55,100,85,42,30.20,30.12,30.03,10,5,0,6,1,,0.00,0,Fog,347
2012-10-6,87,72,57,72,62,57,100,79,37,30.03,29.95,29.88,10,7,0,9,1,,0.00,1,Fog,222
2012-10-7,73,64,55,68,59,52,100,83,60,30.13,30.01,29.94,10,9,3,13,3,25,0.00,5,Thunderstorm,6
2012-10-8,59,55,51,54,51,48,100,86,67,30.17,30.13,30.10,10,9,4,13,7,18,0.25,8,Rain-Thunderstorm,12
2012-10-9,60,56,51,55,53,52,100,91,77,30.17,30.12,30.09,10,7,2,7,5,,0.01,8,,329
2012-10-10,75,60,44,59,53,45,100,81,47,30.13,30.08,30.01,10,8,0,9,1,,0.00,2,Fog,263
2012-10-11,71,58,44,54,46,39,100,74,33,30.31,30.23,30.13,10,7,0,10,1,17,0.00,0,Fog,50
2012-10-12,77,60,44,59,50,45,100,81,36,30.30,30.22,30.16,10,8,2,6,1,,0.00,0,,335
2012-10-13,73,60,46,52,47,43,100,66,36,30.45,30.37,30.30,10,10,10,10,5,16,0.00,0,,46
2012-10-14,80,63,46,63,55,46,100,77,39,30.33,30.20,30.03,10,9,4,8,2,,0.00,2,,130
2012-10-15,80,70,57,72,62,48,100,79,52,30.04,29.88,29.73,10,10,2,13,3,21,0.07,4,Rain-Thunderstorm,239
2012-10-16,73,58,44,52,45,39,100,66,29,29.98,29.92,29.86,10,10,7,10,3,16,0.00,0,,334
2012-10-17,73,58,44,54,49,41,100,78,31,30.03,29.96,29.92,10,9,2,7,1,,0.00,0,,162
2012-10-18,82,66,50,70,59,48,100,81,48,29.93,29.85,29.78,10,9,5,12,3,17,0.00,2,,154
2012-10-19,78,66,51,70,53,34,100,69,21,29.82,29.78,29.73,10,8,2,13,5,17,0.10,2,Rain-Thunderstorm,217
2012-10-20,77,60,44,55,47,41,100,70,29,29.95,29.84,29.79,10,10,10,10,2,,0.00,0,,262
2012-10-21,71,56,42,50,44,37,100,66,33,30.16,30.09,29.97,10,10,7,12,3,17,0.00,0,,340
2012-10-22,77,59,41,54,47,41,100,74,32,30.25,30.19,30.14,10,9,4,7,1,,0.00,0,,283
2012-10-23,80,62,44,55,49,45,100,74,30,30.22,30.16,30.11,10,9,1,5,1,,0.00,0,,191
2012-10-24,82,64,46,61,52,46,100,78,32,30.21,30.15,30.10,10,8,0,5,1,,0.00,1,Fog,229
2012-10-25,86,68,50,63,56,50,100,77,35,30.16,30.10,30.06,10,9,5,9,1,,0.00,1,,73
2012-10-26,73,64,55,63,60,55,100,83,60,30.07,30.00,29.88,10,9,3,15,4,20,0.00,1,,7
2012-10-27,71,68,64,63,59,54,83,72,60,29.87,29.72,29.65,10,10,10,17,10,26,0.00,4,,359
2012-10-28,73,66,59,54,49,43,72,57,38,29.66,29.61,29.56,10,10,10,17,11,24,0.00,3,,336
2012-10-29,59,54,48,43,35,32,66,49,38,29.62,29.56,29.49,10,10,10,22,12,31,0.00,7,,296
2012-10-30,59,54,46,37,33,32,66,49,36,29.68,29.53,29.44,10,10,10,16,10,25,0.00,6,Rain,255
2012-10-31,64,50,37,41,36,34,100,62,34,29.80,29.73,29.68,10,10,10,13,5,20,0.00,2,,240